createdAt,value
2019-02-17T00:00:37.059Z,19.80
2019-02-17T00:03:09.483Z,20.80
2019-02-17T00:05:41.350Z,20.32
2019-02-17T00:08:13.431Z,20.55
2019-02-17T00:10:45.486Z,20.32
2019-02-17T00:13:17.466Z,19.27
2019-02-17T00:15:50.130Z,19.77
2019-02-17T00:18:22.131Z,21.05
2019-02-17T00:20:54.107Z,21.73
2019-02-17T00:23:26.248Z,20.20
2019-02-17T00:25:58.469Z,20.55
2019-02-17T00:28:33.248Z,18.90
2019-02-17T00:31:05.537Z,20.25
2019-02-17T00:33:37.450Z,19.15
2019-02-17T00:36:09.341Z,19.57
2019-02-17T00:38:41.210Z,17.85
2019-02-17T00:41:13.534Z,19.23
2019-02-17T00:43:45.975Z,20.37
2019-02-17T00:46:19.236Z,18.70
2019-02-17T00:48:51.238Z,19.17
2019-02-17T00:51:23.323Z,19.92
2019-02-17T00:53:56.875Z,19.02
2019-02-17T00:56:28.802Z,19.35
2019-02-17T00:59:09.664Z,17.07
2019-02-17T01:01:35.108Z,20.60
2019-02-17T01:04:07.680Z,19.20
2019-02-17T01:06:40.802Z,17.40
2019-02-17T01:09:17.604Z,18.17
2019-02-17T01:11:50.255Z,18.65
2019-02-17T01:14:27.017Z,18.07
2019-02-17T01:17:00.003Z,18.00
2019-02-17T01:19:35.040Z,16.80
2019-02-17T01:22:09.749Z,18.05
2019-02-17T01:24:43.645Z,17.87
2019-02-17T01:27:16.066Z,19.60
2019-02-17T01:29:50.119Z,17.65
2019-02-17T01:32:22.423Z,18.50
2019-02-17T01:34:54.960Z,16.97
2019-02-17T01:37:27.640Z,19.37
2019-02-17T01:40:01.264Z,17.92
2019-02-17T01:42:34.784Z,18.20
2019-02-17T01:45:08.616Z,17.02
2019-02-17T01:47:42.624Z,17.82
2019-02-17T01:50:15.005Z,18.48
2019-02-17T01:52:48.999Z,17.95
2019-02-17T01:55:21.053Z,17.60
2019-02-17T01:57:53.044Z,17.17
2019-02-17T02:00:25.394Z,18.48
2019-02-17T02:02:57.508Z,17.67
2019-02-17T02:05:29.634Z,16.70
2019-02-17T02:08:01.818Z,17.23
2019-02-17T02:10:34.087Z,17.82
2019-02-17T02:13:06.326Z,17.55
2019-02-17T02:15:38.586Z,15.45
2019-02-17T02:18:10.790Z,18.37
2019-02-17T02:20:44.573Z,16.73
2019-02-17T02:23:16.899Z,17.27
2019-02-17T02:25:48.828Z,17.75
2019-02-17T02:28:20.990Z,17.98
2019-02-17T02:30:53.471Z,17.02
2019-02-17T02:33:25.807Z,16.50
2019-02-17T02:35:58.082Z,16.17
2019-02-17T02:38:30.205Z,17.60
2019-02-17T02:41:02.476Z,16.00
2019-02-17T02:43:34.896Z,17.65
2019-02-17T02:46:07.318Z,18.17
2019-02-17T02:48:39.729Z,16.45
2019-02-17T02:51:12.025Z,18.02
2019-02-17T02:53:45.315Z,18.00
2019-02-17T02:56:17.482Z,18.35
2019-02-17T02:58:49.732Z,16.27
2019-02-17T03:01:21.952Z,16.25
2019-02-17T03:03:57.282Z,17.82
2019-02-17T03:06:39.181Z,17.55
2019-02-17T03:09:11.326Z,16.87
2019-02-17T03:11:43.537Z,17.20
2019-02-17T03:14:15.964Z,17.98
2019-02-17T03:16:48.119Z,16.45
2019-02-17T03:19:20.085Z,17.07
2019-02-17T03:21:53.293Z,14.75
2019-02-17T03:24:25.573Z,17.23
2019-02-17T03:26:57.611Z,19.67
2019-02-17T03:29:29.627Z,16.73
2019-02-17T03:34:54.639Z,17.48
2019-02-17T03:37:26.579Z,16.02
2019-02-17T03:39:58.630Z,16.75
2019-02-17T03:42:49.835Z,16.20
2019-02-17T03:45:21.820Z,16.55
2019-02-17T03:47:53.878Z,16.87
2019-02-17T03:50:39.082Z,17.48
2019-02-17T03:53:22.874Z,15.68
2019-02-17T03:56:15.044Z,17.15
2019-02-17T03:58:58.963Z,17.50
2019-02-17T04:01:50.472Z,16.87
2019-02-17T04:04:36.484Z,18.65
2019-02-17T04:07:27.780Z,17.15
2019-02-17T04:10:12.148Z,18.10
2019-02-17T04:13:03.122Z,17.02
2019-02-17T04:15:47.705Z,17.05
2019-02-17T04:18:38.880Z,16.90
2019-02-17T04:21:23.103Z,16.35
2019-02-17T04:24:14.355Z,17.17
2019-02-17T04:26:57.771Z,16.80
2019-02-17T04:29:48.918Z,18.50
2019-02-17T04:32:20.965Z,15.75
2019-02-17T04:35:12.007Z,17.40
2019-02-17T04:37:56.025Z,17.32
2019-02-17T04:40:47.190Z,16.05
2019-02-17T04:43:19.168Z,16.93
2019-02-17T04:46:10.362Z,17.10
2019-02-17T04:48:55.277Z,16.62
2019-02-17T04:51:39.468Z,16.93
2019-02-17T04:54:23.743Z,16.37
2019-02-17T04:57:07.166Z,17.20
2019-02-17T04:59:58.325Z,17.70
2019-02-17T05:02:30.371Z,17.67
2019-02-17T05:05:02.359Z,16.50
2019-02-17T05:07:34.378Z,17.35
2019-02-17T05:10:06.688Z,17.90
2019-02-17T05:12:57.908Z,17.85
2019-02-17T05:15:41.599Z,18.00
2019-02-17T05:18:32.963Z,18.90
2019-02-17T05:21:16.669Z,19.65
2019-02-17T05:24:07.902Z,19.05
2019-02-17T05:26:51.641Z,17.15
2019-02-17T05:29:42.976Z,17.95
2019-02-17T05:32:28.537Z,18.25
2019-02-17T05:35:30.790Z,18.32
2019-02-17T05:38:21.899Z,17.15
2019-02-17T05:41:06.241Z,16.42
2019-02-17T05:43:57.466Z,18.73
2019-02-17T05:46:41.157Z,17.02
2019-02-17T05:49:25.048Z,18.57
2019-02-17T05:52:08.588Z,15.80
2019-02-17T05:54:59.687Z,17.87
2019-02-17T05:57:45.516Z,18.73
2019-02-17T06:03:47.455Z,15.63
2019-02-17T06:06:38.433Z,16.40
2019-02-17T06:09:22.497Z,16.37
2019-02-17T06:12:13.792Z,16.10
2019-02-17T06:14:57.356Z,16.62
2019-02-17T06:17:48.650Z,16.73
2019-02-17T06:20:32.368Z,16.02
2019-02-17T06:23:23.455Z,17.55
2019-02-17T06:26:07.651Z,17.40
2019-02-17T06:28:51.184Z,15.70
2019-02-17T06:31:34.545Z,16.73
2019-02-17T06:34:18.281Z,16.82
2019-02-17T06:36:50.455Z,17.37
2019-02-17T06:39:34.636Z,18.05
2019-02-17T06:42:25.650Z,17.67
2019-02-17T06:45:09.253Z,16.95
2019-02-17T06:48:00.464Z,17.20
2019-02-17T06:50:43.949Z,16.93
2019-02-17T06:53:35.161Z,18.15
2019-02-17T06:59:36.098Z,16.73
2019-02-17T07:02:25.172Z,17.42
2019-02-17T07:05:25.491Z,15.65
2019-02-17T07:07:57.515Z,16.00
2019-02-17T07:10:29.686Z,18.23
2019-02-17T07:13:01.867Z,17.40
2019-02-17T07:15:33.833Z,18.52
2019-02-17T07:18:05.894Z,16.75
2019-02-17T07:20:49.935Z,17.15
2019-02-17T07:23:41.303Z,16.65
2019-02-17T07:26:26.345Z,16.90
2019-02-17T07:29:17.544Z,17.98
2019-02-17T07:32:02.390Z,15.68
2019-02-17T07:34:53.586Z,17.02
2019-02-17T07:37:37.327Z,18.98
2019-02-17T07:40:09.709Z,16.82
2019-02-17T07:42:53.540Z,16.73
2019-02-17T07:45:37.071Z,17.95
2019-02-17T07:48:09.272Z,17.82
2019-02-17T07:50:42.782Z,16.95
2019-02-17T07:53:16.979Z,16.42
2019-02-17T07:56:08.166Z,16.35
2019-02-17T07:58:55.784Z,15.93
2019-02-17T08:01:45.282Z,18.23
2019-02-17T08:04:26.709Z,17.90
2019-02-17T08:07:18.260Z,17.87
2019-02-17T08:09:50.397Z,17.90
2019-02-17T08:12:41.519Z,16.87
2019-02-17T08:15:13.602Z,17.10
2019-02-17T08:17:45.679Z,16.05
2019-02-17T08:20:29.640Z,18.60
2019-02-17T08:23:20.929Z,16.95
2019-02-17T08:26:04.348Z,18.10
2019-02-17T08:28:55.577Z,19.30
2019-02-17T08:31:39.559Z,17.30
2019-02-17T08:34:31.036Z,19.60
2019-02-17T08:37:15.157Z,17.50
2019-02-17T08:40:07.030Z,18.70
2019-02-17T08:42:50.943Z,16.50
2019-02-17T08:45:34.366Z,18.75
2019-02-17T08:48:34.611Z,15.83
2019-02-17T08:51:19.301Z,16.37
2019-02-17T08:54:06.215Z,17.27
2019-02-17T08:56:52.219Z,15.55
2019-02-17T08:59:37.268Z,17.23
2019-02-17T09:02:34.749Z,16.52
2019-02-17T09:05:19.143Z,16.05
2019-02-17T09:11:09.423Z,16.35
2019-02-17T09:13:55.332Z,16.12
2019-02-17T09:16:39.626Z,17.60
2019-02-17T09:19:24.769Z,16.95
2019-02-17T09:25:10.816Z,16.80
2019-02-17T09:28:02.123Z,17.27
2019-02-17T09:34:09.530Z,15.80
2019-02-17T09:36:56.392Z,16.95
2019-02-17T09:39:47.744Z,16.55
2019-02-17T09:42:35.928Z,16.62
2019-02-17T09:45:18.012Z,16.40
2019-02-17T09:48:05.707Z,15.55
2019-02-17T09:50:48.609Z,16.40
2019-02-17T09:53:20.769Z,16.77
2019-02-17T09:55:55.093Z,16.75
2019-02-17T09:59:04.651Z,16.73
2019-02-17T10:01:48.153Z,15.90
2019-02-17T10:04:39.445Z,17.07
2019-02-17T10:07:24.006Z,15.72
2019-02-17T10:10:15.416Z,16.15
2019-02-17T10:13:01.336Z,15.75
2019-02-17T10:15:54.673Z,29.18
2019-02-17T10:18:40.668Z,15.10
2019-02-17T10:21:31.777Z,15.75
2019-02-17T10:24:15.344Z,18.45
2019-02-17T10:31:05.618Z,16.67
2019-02-17T10:33:43.767Z,15.83
2019-02-17T10:36:16.002Z,15.30
2019-02-17T10:38:48.908Z,18.92
2019-02-17T10:41:39.576Z,17.55
2019-02-17T10:44:30.686Z,16.55
2019-02-17T10:47:14.654Z,16.45
2019-02-17T10:50:06.491Z,15.35
2019-02-17T10:52:53.695Z,14.85
2019-02-17T10:55:44.861Z,16.12
2019-02-17T10:58:31.031Z,14.60
2019-02-17T11:01:22.119Z,15.40
2019-02-17T11:04:09.396Z,16.15
2019-02-17T11:07:01.632Z,16.00
2019-02-17T11:09:45.387Z,14.73
2019-02-17T11:12:31.751Z,14.65
2019-02-17T11:18:14.613Z,15.10
2019-02-17T11:20:59.803Z,15.00
2019-02-17T11:23:50.962Z,15.85
2019-02-17T11:26:34.284Z,15.68
2019-02-17T11:32:16.823Z,14.83
2019-02-17T11:35:01.967Z,15.83
2019-02-17T11:37:53.404Z,14.87
2019-02-17T11:40:37.022Z,13.95
2019-02-17T11:43:21.086Z,15.23
2019-02-17T11:46:12.121Z,14.23
2019-02-17T11:48:56.236Z,14.23
2019-02-17T11:51:28.203Z,12.82
2019-02-17T11:54:12.955Z,14.95
2019-02-17T11:56:45.233Z,13.60
2019-02-17T11:59:18.005Z,14.70
2019-02-17T12:02:02.629Z,14.85
2019-02-17T12:04:46.118Z,13.78
2019-02-17T12:07:29.940Z,13.60
2019-02-17T12:10:21.282Z,13.58
2019-02-17T12:12:53.347Z,14.87
2019-02-17T12:15:44.566Z,13.83
2019-02-17T12:18:28.180Z,13.03
2019-02-17T12:21:38.147Z,14.50
2019-02-17T12:24:33.119Z,14.40
2019-02-17T12:27:32.547Z,14.13
2019-02-17T12:30:19.938Z,13.35
2019-02-17T12:33:17.943Z,13.72
2019-02-17T12:36:01.794Z,14.60
2019-02-17T12:38:33.943Z,12.50
2019-02-17T12:41:17.682Z,12.88
2019-02-17T12:44:09.450Z,14.30
2019-02-17T12:46:41.663Z,14.35
2019-02-17T12:49:33.054Z,14.43
2019-02-17T12:52:18.377Z,13.55
2019-02-17T12:55:01.781Z,13.93
2019-02-17T12:57:36.301Z,11.80
2019-02-17T13:00:24.860Z,12.25
2019-02-17T13:03:15.986Z,12.73
2019-02-17T13:05:48.688Z,13.00
2019-02-17T13:08:40.207Z,13.22
2019-02-17T13:11:25.969Z,12.80
2019-02-17T13:14:16.629Z,11.60
2019-02-17T13:17:01.847Z,12.15
2019-02-17T13:19:52.999Z,12.85
2019-02-17T13:22:38.202Z,12.33
2019-02-17T13:25:29.361Z,12.10
2019-02-17T13:28:13.215Z,13.35
2019-02-17T13:31:04.402Z,12.93
2019-02-17T13:33:48.472Z,12.65
2019-02-17T13:36:39.870Z,11.00
2019-02-17T13:39:23.398Z,11.90
2019-02-17T13:41:55.381Z,11.50
2019-02-17T13:44:39.075Z,11.75
2019-02-17T13:47:30.390Z,11.93
2019-02-17T13:50:02.522Z,12.37
2019-02-17T13:52:46.631Z,12.15
2019-02-17T13:55:30.786Z,15.23
2019-02-17T13:58:21.877Z,12.80
2019-02-17T14:01:05.305Z,14.55
2019-02-17T14:03:49.477Z,14.23
2019-02-17T14:06:40.824Z,12.90
2019-02-17T14:09:24.393Z,12.93
2019-02-17T14:12:15.491Z,12.68
2019-02-17T14:14:59.315Z,12.55
2019-02-17T14:17:42.874Z,11.88
2019-02-17T14:20:15.032Z,12.93
2019-02-17T14:22:58.506Z,12.07
2019-02-17T14:25:49.927Z,12.47
2019-02-17T14:28:33.619Z,10.90
2019-02-17T14:33:58.659Z,12.73
2019-02-17T14:36:45.389Z,11.53
2019-02-17T14:39:36.820Z,10.85
2019-02-17T14:42:20.316Z,10.10
2019-02-17T14:45:11.494Z,10.08
2019-02-17T14:47:55.611Z,10.95
2019-02-17T14:50:46.980Z,9.90
2019-02-17T14:53:30.455Z,10.13
2019-02-17T14:56:14.632Z,9.00
2019-02-17T14:58:58.719Z,9.23
2019-02-17T15:01:49.866Z,9.63
2019-02-17T15:04:33.907Z,8.95
2019-02-17T15:07:17.800Z,10.53
2019-02-17T15:10:09.345Z,8.65
2019-02-17T15:12:52.862Z,9.53
2019-02-17T15:15:44.040Z,8.03
2019-02-17T15:18:29.917Z,9.55
2019-02-17T15:21:21.135Z,12.10
2019-02-17T15:24:05.481Z,11.10
2019-02-17T15:26:48.895Z,11.40
2019-02-17T15:29:32.563Z,12.05
2019-02-17T15:32:23.791Z,11.85
2019-02-17T15:35:08.031Z,11.85
2019-02-17T15:37:59.279Z,12.45
2019-02-17T15:40:43.288Z,10.60
2019-02-17T15:43:34.727Z,10.58
2019-02-17T15:46:19.056Z,9.90
2019-02-17T15:49:10.312Z,9.70
2019-02-17T15:51:53.837Z,9.40
2019-02-17T15:54:26.121Z,10.40
2019-02-17T15:56:58.405Z,11.22
2019-02-17T15:59:30.371Z,9.93
2019-02-17T16:02:03.822Z,10.13
2019-02-17T16:04:35.949Z,9.68
2019-02-17T16:07:07.918Z,9.55
2019-02-17T16:09:40.188Z,8.33
2019-02-17T16:12:31.224Z,9.05
2019-02-17T16:15:15.199Z,8.70
2019-02-17T16:18:06.162Z,9.60
2019-02-17T16:20:49.834Z,9.63
2019-02-17T16:23:41.055Z,8.83
2019-02-17T16:26:25.106Z,10.10
2019-02-17T16:29:16.303Z,9.28
2019-02-17T16:32:02.101Z,9.33
2019-02-17T16:34:54.271Z,9.30
2019-02-17T16:37:37.974Z,9.43
2019-02-17T16:40:29.191Z,8.15
2019-02-17T16:43:13.499Z,9.23
2019-02-17T16:46:04.750Z,9.20
2019-02-17T16:48:48.536Z,11.03
2019-02-17T16:51:39.744Z,10.35
2019-02-17T16:54:25.123Z,9.13
2019-02-17T16:57:16.244Z,9.48
2019-02-17T17:00:00.632Z,9.48
2019-02-17T17:02:52.635Z,9.75
2019-02-17T17:05:25.378Z,11.93
2019-02-17T17:08:17.339Z,14.63
2019-02-17T17:11:02.992Z,13.70
2019-02-17T17:13:54.641Z,14.65
2019-02-17T17:16:38.581Z,14.40
2019-02-17T17:19:29.842Z,14.05
2019-02-17T17:22:13.329Z,13.85
2019-02-17T17:25:04.602Z,13.43
2019-02-17T17:27:49.064Z,12.65
2019-02-17T17:30:33.175Z,14.13
2019-02-17T17:33:24.380Z,14.70
2019-02-17T17:36:07.815Z,13.50
2019-02-17T17:38:59.096Z,15.90
2019-02-17T17:41:44.288Z,15.35
2019-02-17T17:44:35.400Z,14.20
2019-02-17T17:47:19.231Z,14.55
2019-02-17T17:50:11.753Z,14.65
2019-02-17T17:52:56.836Z,15.05
2019-02-17T17:55:41.611Z,14.68
2019-02-17T17:58:32.803Z,15.43
2019-02-17T18:01:17.771Z,17.40
2019-02-17T18:04:09.270Z,17.40
2019-02-17T18:07:05.200Z,15.60
2019-02-17T18:09:56.401Z,13.90
2019-02-17T18:12:40.693Z,14.63
2019-02-17T18:15:24.475Z,15.13
2019-02-17T18:18:15.581Z,14.70
2019-02-17T18:20:59.149Z,15.93
2019-02-17T18:23:50.497Z,12.88
2019-02-17T18:26:34.374Z,14.47
2019-02-17T18:29:25.631Z,14.53
2019-02-17T18:32:10.960Z,15.85
2019-02-17T18:35:01.979Z,13.25
2019-02-17T18:37:47.826Z,13.55
2019-02-17T18:40:44.954Z,16.02
2019-02-17T18:43:38.893Z,13.43
2019-02-17T18:46:23.449Z,13.85
2019-02-17T18:49:14.596Z,13.83
2019-02-17T18:51:46.481Z,14.75
2019-02-17T18:54:19.658Z,15.05
2019-02-17T18:57:08.140Z,13.08
2019-02-17T18:59:56.202Z,13.22
2019-02-17T19:02:40.154Z,14.78
2019-02-17T19:05:32.466Z,14.58
2019-02-17T19:08:36.074Z,12.60
2019-02-17T19:11:27.409Z,13.32
2019-02-17T19:14:11.581Z,14.23
2019-02-17T19:17:03.009Z,12.18
2019-02-17T19:19:35.557Z,14.23
2019-02-17T19:22:26.974Z,13.10
2019-02-17T19:28:07.777Z,13.20
2019-02-17T19:30:58.956Z,14.87
2019-02-17T19:33:43.495Z,13.98
2019-02-17T19:36:34.639Z,15.05
2019-02-17T19:39:19.697Z,14.55
2019-02-17T19:41:52.054Z,14.90
2019-02-17T19:44:24.226Z,14.30
2019-02-17T19:47:15.375Z,15.98
2019-02-17T19:50:00.578Z,14.13
2019-02-17T19:52:51.801Z,15.40
2019-02-17T19:55:35.680Z,15.78
2019-02-17T19:58:20.178Z,15.30
2019-02-17T20:01:03.574Z,14.93
2019-02-17T20:04:06.708Z,13.83
2019-02-17T20:06:59.884Z,12.20
2019-02-17T20:10:02.336Z,12.45
2019-02-17T20:12:53.604Z,13.53
2019-02-17T20:15:38.987Z,13.20
2019-02-17T20:18:30.165Z,13.10
2019-02-17T20:21:14.035Z,13.28
2019-02-17T20:24:05.056Z,12.63
2019-02-17T20:26:48.655Z,12.65
2019-02-17T20:29:40.769Z,11.95
2019-02-17T20:32:24.699Z,12.20
2019-02-17T20:35:16.006Z,11.40
2019-02-17T20:38:07.457Z,11.85
2019-02-17T20:40:51.271Z,12.00
2019-02-17T20:43:42.789Z,12.45
2019-02-17T20:46:32.838Z,12.70
2019-02-17T20:49:17.646Z,13.83
2019-02-17T20:51:49.854Z,12.60
2019-02-17T20:54:34.136Z,13.00
2019-02-17T20:57:18.035Z,13.15
2019-02-17T21:00:08.358Z,13.18
2019-02-17T21:02:51.013Z,13.85
2019-02-17T21:05:35.925Z,12.98
2019-02-17T21:08:27.692Z,12.37
2019-02-17T21:11:00.423Z,12.53
2019-02-17T21:13:51.740Z,12.45
2019-02-17T21:16:36.388Z,13.58
2019-02-17T21:19:12.071Z,13.85
2019-02-17T21:21:56.036Z,12.47
2019-02-17T21:24:47.280Z,13.65
2019-02-17T21:27:19.403Z,12.28
2019-02-17T21:30:11.144Z,13.68
2019-02-17T21:32:43.326Z,13.50
2019-02-17T21:35:15.619Z,12.28
2019-02-17T21:37:48.212Z,13.22
2019-02-17T21:40:20.167Z,12.33
2019-02-17T21:42:52.477Z,14.58
2019-02-17T21:45:24.807Z,13.80
2019-02-17T21:48:09.628Z,15.08
2019-02-17T21:50:47.557Z,14.93
2019-02-17T21:53:20.857Z,13.22
2019-02-17T21:56:31.447Z,13.98
2019-02-17T21:59:03.692Z,18.67
2019-02-17T22:01:36.029Z,16.45
2019-02-17T22:04:08.587Z,20.92
2019-02-17T22:06:40.950Z,17.55
2019-02-17T22:09:32.497Z,17.50
2019-02-17T22:12:16.264Z,17.60
2019-02-17T22:15:09.089Z,14.95
2019-02-17T22:17:53.556Z,15.35
2019-02-17T22:20:25.728Z,16.27
2019-02-17T22:23:10.182Z,15.08
2019-02-17T22:26:00.782Z,15.32
2019-02-17T22:28:44.514Z,14.07
2019-02-17T22:31:35.525Z,14.33
2019-02-17T22:34:19.465Z,11.43
2019-02-17T22:37:10.649Z,12.95
2019-02-17T22:39:43.098Z,13.20
2019-02-17T22:42:34.195Z,12.07
2019-02-17T22:45:17.878Z,11.88
2019-02-17T22:48:09.153Z,13.30
2019-02-17T22:50:52.515Z,10.80
2019-02-17T22:53:44.332Z,12.18
2019-02-17T22:56:48.117Z,11.70
2019-02-17T22:59:39.315Z,12.23
2019-02-17T23:02:23.166Z,11.65
2019-02-17T23:05:15.538Z,11.35
2019-02-17T23:07:59.977Z,12.00
2019-02-17T23:10:52.140Z,11.65
2019-02-17T23:13:34.323Z,10.43
2019-02-17T23:16:25.496Z,10.20
2019-02-17T23:19:10.444Z,10.85
2019-02-17T23:22:01.546Z,10.18
2019-02-17T23:24:45.310Z,11.38
2019-02-17T23:27:29.126Z,10.20
2019-02-17T23:30:20.253Z,11.83
2019-02-17T23:33:03.980Z,11.30
2019-02-17T23:35:55.183Z,11.48
2019-02-17T23:38:40.288Z,12.23
2019-02-17T23:41:31.495Z,12.03
2019-02-17T23:44:15.044Z,12.15
2019-02-17T23:47:06.565Z,10.32
2019-02-17T23:49:50.486Z,11.80
2019-02-17T23:52:41.709Z,11.25
2019-02-17T23:55:25.683Z,11.80
2019-02-17T23:58:09.903Z,12.20
